Time;durP1;ratioP1;P1;durP2;ratioP2;P2;SDS_P1;SDS_P2;PMS_P1;PMS_P2;Temp;Humidity;BMP_temperature;BMP_pressure;BME280_temperature;BME280_humidity;BME280_pressure;Samples;Min_cycle;Max_cycle;Signal;HPM_P1;HPM_P2
2023/07/26 00:02:04;;;;;;;2.42;0.68;;;;;;;18.28;53.23;99812.63;10500895;28;20063;-71
2023/07/26 00:07:06;;;;;;;3.22;0.52;;;;;;;18.29;53.04;99817.00;10506571;28;20072;-70
2023/07/26 00:12:07;;;;;;;3.70;1.15;;;;;;;18.22;53.22;99826.09;10501748;28;20063;-70
2023/07/26 00:17:08;;;;;;;2.25;0.50;;;;;;;18.27;53.29;99821.88;10499661;28;20079;-71
2023/07/26 00:22:10;;;;;;;2.42;0.50;;;;;;;18.23;53.14;99819.63;10505916;28;20041;-71
2023/07/26 00:27:14;;;;;;;4.13;0.60;;;;;;;18.20;53.50;99827.41;10501728;28;20072;-70
2023/07/26 00:32:15;;;;;;;3.15;0.50;;;;;;;18.26;53.62;99831.91;10497213;28;20068;-71
2023/07/26 00:37:16;;;;;;;2.65;0.60;;;;;;;18.21;53.67;99832.63;10500352;28;20095;-70
2023/07/26 00:42:18;;;;;;;2.28;0.60;;;;;;;18.09;53.88;99837.25;10502616;28;20071;-70
2023/07/26 00:47:20;;;;;;;5.22;0.70;;;;;;;18.10;54.13;99840.81;10497276;28;20048;-71
2023/07/26 00:52:23;;;;;;;2.38;0.93;;;;;;;18.04;54.50;99842.56;10500443;28;20060;-71
2023/07/26 00:57:24;;;;;;;0.85;0.50;;;;;;;17.91;54.61;99846.38;10499295;28;20116;-71
2023/07/26 01:02:26;;;;;;;2.15;0.55;;;;;;;17.84;54.80;99846.47;10500323;28;20044;-71
2023/07/26 01:07:36;;;;;;;1.80;0.40;;;;;;;17.74;55.36;99854.38;10498074;28;20040;-71
2023/07/26 01:12:46;;;;;;;1.95;0.50;;;;;;;17.72;55.21;99852.97;10499432;28;20310;-71
2023/07/26 01:17:47;;;;;;;3.05;0.70;;;;;;;17.82;55.44;99862.16;10495175;28;20045;-71
2023/07/26 01:22:51;;;;;;;2.25;0.60;;;;;;;17.92;55.59;99861.63;10499593;28;20071;-70
2023/07/26 01:27:53;;;;;;;4.63;0.80;;;;;;;17.95;55.34;99863.88;10496617;28;20045;-69
2023/07/26 01:32:57;;;;;;;2.53;0.47;;;;;;;17.87;55.62;99864.25;10506524;28;20540;-71
2023/07/26 01:37:59;;;;;;;2.33;0.65;;;;;;;17.68;56.05;99863.47;10504625;28;20067;-72
2023/07/26 01:43:01;;;;;;;5.78;0.82;;;;;;;17.67;56.17;99867.25;10505064;28;20048;-70
2023/07/26 01:48:03;;;;;;;1.70;0.52;;;;;;;17.59;56.17;99867.59;10504062;28;20102;-70
2023/07/26 01:53:04;;;;;;;4.30;0.50;;;;;;;17.62;56.21;99867.13;10510941;28;20333;-70
2023/07/26 01:58:06;;;;;;;2.80;0.50;;;;;;;17.50;56.46;99871.72;10508244;28;20056;-71
2023/07/26 02:03:07;;;;;;;4.97;0.68;;;;;;;17.40;56.84;99875.00;10506009;28;20040;-69
2023/07/26 02:08:09;;;;;;;1.95;0.50;;;;;;;17.26;57.00;99868.94;10509449;28;20083;-71
2023/07/26 02:13:11;;;;;;;3.40;0.45;;;;;;;17.14;57.38;99870.78;10506991;28;20068;-70
2023/07/26 02:18:12;;;;;;;2.17;0.40;;;;;;;17.15;57.36;99883.31;10503630;28;20063;-72
2023/07/26 02:23:14;;;;;;;2.53;0.50;;;;;;;17.27;57.14;99881.47;10505740;28;20363;-71
2023/07/26 02:28:15;;;;;;;2.25;0.40;;;;;;;17.24;57.29;99877.31;10511152;28;20059;-70
2023/07/26 02:33:17;;;;;;;2.38;0.50;;;;;;;17.18;57.50;99877.41;10503278;28;20127;-71
2023/07/26 02:38:18;;;;;;;2.13;0.60;;;;;;;17.19;57.53;99871.75;10503755;28;20048;-70
2023/07/26 02:43:19;;;;;;;2.70;0.70;;;;;;;17.17;57.84;99878.47;10505370;28;20049;-71
2023/07/26 02:48:40;;;;;;;0.98;0.60;;;;;;;17.05;58.11;99886.59;10509505;28;20040;-71
2023/07/26 02:53:41;;;;;;;2.10;0.60;;;;;;;16.99;58.57;99884.78;10505316;28;20107;-70
2023/07/26 02:58:43;;;;;;;2.22;0.80;;;;;;;16.96;59.00;99893.38;10505979;28;20060;-70
2023/07/26 03:03:44;;;;;;;1.02;0.60;;;;;;;16.90;59.12;99897.00;10508992;28;20363;-71
2023/07/26 03:08:46;;;;;;;2.35;0.70;;;;;;;16.85;59.21;99898.53;10500970;28;20052;-71
2023/07/26 03:13:47;;;;;;;0.90;0.65;;;;;;;16.80;59.60;99898.34;10501971;28;20297;-71
2023/07/26 03:18:49;;;;;;;1.10;0.60;;;;;;;16.79;59.67;99907.56;10503688;28;20062;-71
2023/07/26 03:23:51;;;;;;;4.85;1.15;;;;;;;16.79;59.84;99902.13;10508166;28;20045;-69
2023/07/26 03:28:52;;;;;;;1.30;0.50;;;;;;;16.80;60.01;99911.91;10502873;28;20041;-71
2023/07/26 03:33:54;;;;;;;3.15;0.60;;;;;;;16.80;60.27;99911.09;10502117;28;20094;-70
2023/07/26 03:38:55;;;;;;;4.40;1.05;;;;;;;16.78;60.59;99916.75;10506036;28;20044;-71
2023/07/26 03:43:56;;;;;;;3.53;0.60;;;;;;;16.84;60.44;99915.91;10501067;28;20041;-68
2023/07/26 03:48:58;;;;;;;2.17;0.60;;;;;;;16.88;60.36;99918.97;10502922;28;20454;-68
2023/07/26 03:53:59;;;;;;;3.17;0.70;;;;;;;16.88;60.50;99921.66;10502843;28;20115;-68
2023/07/26 03:59:00;;;;;;;1.98;0.47;;;;;;;16.91;60.72;99926.66;10504607;28;20074;-68
2023/07/26 04:04:02;;;;;;;5.15;0.90;;;;;;;16.93;60.70;99929.97;10495817;28;20095;-68
2023/07/26 04:09:03;;;;;;;3.63;0.70;;;;;;;16.99;60.52;99925.53;10500314;28;20107;-68
2023/07/26 04:14:05;;;;;;;2.65;0.60;;;;;;;16.99;60.76;99930.94;10502443;28;20058;-68
2023/07/26 04:19:06;;;;;;;2.60;0.93;;;;;;;17.01;60.82;99929.66;10498128;28;20407;-68
2023/07/26 04:24:08;;;;;;;2.45;0.57;;;;;;;16.90;61.59;99937.75;10499243;28;20111;-68
2023/07/26 04:29:09;;;;;;;6.47;1.00;;;;;;;16.76;62.36;99945.19;10499440;28;20068;-67
2023/07/26 04:34:12;;;;;;;3.17;0.80;;;;;;;16.74;62.74;99941.88;10501301;28;20128;-69
2023/07/26 04:39:13;;;;;;;5.88;1.65;;;;;;;16.73;62.91;99943.75;10500211;28;20044;-68
2023/07/26 04:44:15;;;;;;;3.15;1.65;;;;;;;16.72;63.32;99938.56;10498185;28;20040;-68
2023/07/26 04:49:16;;;;;;;6.30;1.08;;;;;;;16.73;63.43;99943.75;10504320;28;20103;-69
2023/07/26 04:54:18;;;;;;;3.03;1.45;;;;;;;16.66;63.54;99951.97;10497792;28;20103;-69
2023/07/26 04:59:19;;;;;;;4.60;0.90;;;;;;;16.52;63.85;99957.78;10497346;28;20071;-69
2023/07/26 05:04:20;;;;;;;3.42;0.98;;;;;;;16.54;63.93;99959.19;10500863;28;20111;-69
2023/07/26 05:09:22;;;;;;;4.40;1.00;;;;;;;16.59;63.88;99959.38;10503941;28;20055;-69
2023/07/26 05:14:23;;;;;;;4.47;0.88;;;;;;;16.58;64.23;99968.53;10500081;28;20055;-69
2023/07/26 05:19:25;;;;;;;2.65;1.02;;;;;;;16.64;64.39;99969.53;10500032;28;20107;-69
2023/07/26 05:24:26;;;;;;;6.43;0.90;;;;;;;16.72;64.43;99966.50;10502047;28;20060;-69
2023/07/26 05:29:27;;;;;;;1.88;0.80;;;;;;;16.79;64.26;99975.44;10500054;28;20412;-69
2023/07/26 05:34:29;;;;;;;1.60;1.00;;;;;;;16.82;64.56;99964.16;10506094;28;20382;-69
2023/07/26 05:39:32;;;;;;;0.93;0.68;;;;;;;16.92;64.79;99957.34;10498333;28;20048;-69
2023/07/26 05:44:33;;;;;;;4.32;0.80;;;;;;;16.98;64.87;99967.28;10503701;28;20108;-69
2023/07/26 05:49:34;;;;;;;1.85;0.90;;;;;;;17.00;64.76;99979.59;10499208;28;20068;-69
2023/07/26 05:54:36;;;;;;;2.50;0.65;;;;;;;16.51;66.07;99997.66;10498776;28;20048;-69
2023/07/26 05:59:37;;;;;;;4.63;1.52;;;;;;;15.81;67.97;100016.78;10502365;28;20099;-70
2023/07/26 06:04:39;;;;;;;4.70;1.52;;;;;;;15.76;68.75;100003.88;10498444;28;20125;-69
2023/07/26 06:09:40;;;;;;;2.47;1.52;;;;;;;15.90;69.26;100009.22;10499224;28;20222;-69
2023/07/26 06:14:42;;;;;;;6.35;1.38;;;;;;;15.47;70.63;100016.13;10497202;28;20123;-69
2023/07/26 06:19:43;;;;;;;4.35;1.40;;;;;;;15.41;70.68;100035.94;10506254;28;20319;-70
2023/07/26 06:24:45;;;;;;;3.92;1.80;;;;;;;14.95;72.63;100055.88;10505816;28;20108;-68
2023/07/26 06:29:46;;;;;;;5.40;2.38;;;;;;;14.77;73.11;100062.81;10504301;28;20108;-70
2023/07/26 06:34:48;;;;;;;12.48;3.22;;;;;;;14.61;73.76;100066.78;10508088;28;20044;-69
2023/07/26 06:39:49;;;;;;;7.57;2.30;;;;;;;14.64;74.04;100069.03;10505841;28;20056;-69
2023/07/26 06:44:51;;;;;;;10.90;3.22;;;;;;;14.68;74.11;100064.06;10504617;28;20116;-69
2023/07/26 06:49:52;;;;;;;4.10;2.33;;;;;;;14.94;73.65;100062.34;10503490;28;20124;-70
2023/07/26 06:54:54;;;;;;;5.88;2.63;;;;;;;14.83;74.04;100051.13;10508512;28;20045;-69
2023/07/26 06:59:55;;;;;;;4.45;2.55;;;;;;;14.98;74.24;100061.69;10504403;28;20048;-68
2023/07/26 07:04:56;;;;;;;4.90;2.20;;;;;;;15.03;74.25;100063.78;10502915;28;20057;-69
2023/07/26 07:09:58;;;;;;;4.38;2.50;;;;;;;15.06;74.73;100047.94;10507092;28;20044;-69
2023/07/26 07:14:59;;;;;;;5.40;1.90;;;;;;;15.12;74.89;100057.06;10510049;28;20052;-67
2023/07/26 07:20:01;;;;;;;3.55;2.17;;;;;;;15.00;75.32;100065.03;10505777;28;20119;-67
2023/07/26 07:25:03;;;;;;;3.92;1.75;;;;;;;14.99;75.58;100070.66;10503891;28;20036;-67
2023/07/26 07:30:05;;;;;;;4.13;1.40;;;;;;;15.01;75.40;100071.28;10505972;28;20127;-68
2023/07/26 07:35:07;;;;;;;3.55;1.10;;;;;;;14.61;76.05;100074.03;10499268;28;20367;-69
2023/07/26 07:40:09;;;;;;;3.88;0.75;;;;;;;14.38;76.36;100074.44;10502961;28;20064;-68
2023/07/26 07:45:11;;;;;;;3.63;2.15;;;;;;;14.40;76.38;100062.38;10506010;28;20067;-71
2023/07/26 07:50:13;;;;;;;3.25;1.13;;;;;;;14.45;76.41;100062.59;10498757;28;20056;-68
2023/07/26 07:55:15;;;;;;;5.30;1.40;;;;;;;14.43;76.82;100063.81;10501711;28;20094;-68
2023/07/26 08:00:17;;;;;;;4.50;1.92;;;;;;;14.44;76.76;100066.31;10500764;28;20111;-69
2023/07/26 08:05:18;;;;;;;1.88;1.35;;;;;;;14.53;76.78;100055.28;10506214;28;20041;-69
2023/07/26 08:10:20;;;;;;;1.70;1.25;;;;;;;14.43;77.26;100061.13;10501584;28;20112;-69
2023/07/26 08:15:22;;;;;;;2.65;1.58;;;;;;;14.62;76.99;100057.59;10507496;28;20048;-68
2023/07/26 08:20:24;;;;;;;5.50;2.55;;;;;;;14.73;77.28;100072.38;10504726;28;20067;-67
2023/07/26 08:25:25;;;;;;;2.85;2.00;;;;;;;15.04;77.09;100068.97;10501510;28;20123;-67
2023/07/26 08:30:27;;;;;;;3.55;2.35;;;;;;;15.29;76.93;100072.88;10501574;28;20059;-68
2023/07/26 08:35:29;;;;;;;5.60;2.55;;;;;;;15.35;77.27;100082.84;10500621;28;20055;-68
2023/07/26 08:40:30;;;;;;;4.32;2.47;;;;;;;15.63;76.97;100080.63;10502362;28;20115;-69
2023/07/26 08:45:32;;;;;;;4.90;2.22;;;;;;;15.75;77.03;100079.97;10500115;28;20087;-68
2023/07/26 08:50:37;;;;;;;7.70;2.33;;;;;;;15.91;76.94;100076.75;10499362;28;20284;-67
2023/07/26 08:55:39;;;;;;;6.60;2.90;;;;;;;16.09;76.46;100073.31;10503151;28;20037;-68
2023/07/26 09:00:41;;;;;;;3.50;1.90;;;;;;;16.29;76.24;100083.19;10499696;28;20124;-68
2023/07/26 09:05:42;;;;;;;17.70;2.55;;;;;;;16.43;75.78;100085.59;10498431;28;20068;-69
2023/07/26 09:10:44;;;;;;;7.03;1.88;;;;;;;16.57;75.89;100080.06;10507842;28;20371;-68
2023/07/26 09:15:45;;;;;;;2.67;1.85;;;;;;;16.77;75.31;100077.97;10503235;28;20048;-69
2023/07/26 09:20:47;;;;;;;3.50;2.05;;;;;;;17.04;74.90;100083.16;10499468;28;20056;-70
2023/07/26 09:25:48;;;;;;;4.25;2.20;;;;;;;17.12;74.24;100074.75;10500369;28;20053;-70
2023/07/26 09:30:50;;;;;;;3.63;1.67;;;;;;;17.41;73.48;100078.56;10502886;28;20111;-69
2023/07/26 09:35:54;;;;;;;3.15;1.60;;;;;;;17.62;72.58;100066.38;10504878;28;20360;-69
2023/07/26 09:40:56;;;;;;;4.32;1.70;;;;;;;18.02;72.01;100063.13;10499240;28;20162;-69
2023/07/26 09:45:59;;;;;;;8.23;2.15;;;;;;;18.30;71.34;100053.47;10500216;28;20045;-69
2023/07/26 09:51:05;;;;;;;3.88;1.17;;;;;;;18.34;70.48;100053.84;10503190;28;20104;-70
2023/07/26 09:56:09;;;;;;;4.80;1.00;;;;;;;18.32;69.64;100043.19;10507566;28;20056;-70
2023/07/26 10:01:14;;;;;;;3.47;0.75;;;;;;;18.62;68.53;100045.00;10508209;28;20036;-70
2023/07/26 10:06:16;;;;;;;3.20;1.58;;;;;;;18.89;67.13;100030.94;10505818;28;20121;-70
2023/07/26 10:11:21;;;;;;;2.35;0.90;;;;;;;19.06;66.83;100039.22;10509696;28;20615;-69
2023/07/26 10:16:23;;;;;;;2.88;0.93;;;;;;;19.30;65.88;100034.53;10506546;28;20265;-70
2023/07/26 10:21:26;;;;;;;2.55;0.68;;;;;;;19.46;64.66;100038.38;10505674;28;20044;-70
2023/07/26 10:26:31;;;;;;;3.28;1.17;;;;;;;19.27;64.07;100035.00;10509031;28;20315;-70
2023/07/26 10:31:32;;;;;;;5.25;0.95;;;;;;;19.33;63.77;100026.69;10507546;28;20055;-70
2023/07/26 10:36:36;;;;;;;2.03;0.68;;;;;;;19.39;63.17;100033.91;10508710;28;20052;-70
2023/07/26 10:41:48;;;;;;;2.92;1.30;;;;;;;19.44;62.28;100024.16;10504187;28;20063;-70
2023/07/26 10:46:52;;;;;;;3.92;0.88;;;;;;;19.78;61.62;100017.75;10508874;28;20036;-70
2023/07/26 10:52:02;;;;;;;2.80;0.70;;;;;;;19.85;61.25;100019.53;10504713;28;20059;-70
2023/07/26 10:57:18;;;;;;;1.98;0.88;;;;;;;19.79;60.75;100010.41;10505836;28;20059;-71
2023/07/26 11:02:43;;;;;;;1.15;0.60;;;;;;;19.92;60.73;100006.53;10507031;28;20055;-70
2023/07/26 11:08:01;;;;;;;5.83;1.00;;;;;;;20.06;60.26;99998.84;10507729;28;20055;-71
2023/07/26 11:13:13;;;;;;;1.52;0.55;;;;;;;20.49;58.92;99995.44;10503890;28;20256;-72
2023/07/26 11:18:16;;;;;;;2.88;0.55;;;;;;;20.90;58.43;99997.97;10502753;28;20048;-71
2023/07/26 11:23:25;;;;;;;1.63;0.50;;;;;;;20.79;57.30;100005.19;10507244;28;20060;-71
2023/07/26 11:28:33;;;;;;;1.13;0.52;;;;;;;20.35;56.87;100013.25;10502223;28;20044;-70
2023/07/26 11:33:36;;;;;;;0.80;0.40;;;;;;;19.88;56.00;100017.09;10508380;28;20037;-70
2023/07/26 11:38:42;;;;;;;1.67;0.45;;;;;;;19.84;55.62;100007.75;10501096;28;20116;-70
2023/07/26 11:43:44;;;;;;;1.70;0.90;;;;;;;20.11;54.95;100001.69;10505780;28;20402;-69
2023/07/26 11:48:45;;;;;;;1.55;0.75;;;;;;;20.40;53.55;100000.50;10502917;28;20059;-70
2023/07/26 11:53:47;;;;;;;0.77;0.20;;;;;;;20.47;52.08;99999.50;10502447;28;21351;-70
2023/07/26 11:58:52;;;;;;;2.72;0.30;;;;;;;20.66;50.33;100002.84;10502424;28;20045;-69
2023/07/26 12:03:54;;;;;;;1.48;0.70;;;;;;;20.96;48.79;99994.22;10502400;28;20099;-69
2023/07/26 12:09:09;;;;;;;1.00;0.30;;;;;;;21.12;49.12;100000.69;10501858;28;20094;-69
2023/07/26 12:14:16;;;;;;;1.05;0.22;;;;;;;21.18;48.07;99997.75;10501618;28;20238;-69
2023/07/26 12:19:25;;;;;;;0.70;0.30;;;;;;;21.61;46.85;99984.34;10505944;28;20112;-69
2023/07/26 12:24:27;;;;;;;1.50;0.45;;;;;;;21.95;46.78;99982.19;10499780;28;20047;-69
2023/07/26 12:29:30;;;;;;;0.55;0.25;;;;;;;22.39;45.81;99986.66;10500369;28;20555;-69
2023/07/26 12:34:33;;;;;;;0.40;0.20;;;;;;;22.34;44.09;99979.25;10500836;28;20044;-70
2023/07/26 12:39:37;;;;;;;0.50;0.20;;;;;;;22.32;43.39;99975.94;10504630;28;20045;-70
2023/07/26 12:44:39;;;;;;;1.27;0.20;;;;;;;22.74;42.55;99977.81;10500519;28;20056;-70
2023/07/26 12:49:41;;;;;;;0.63;0.20;;;;;;;22.77;41.15;99981.97;10500053;28;20044;-70
2023/07/26 12:54:42;;;;;;;1.42;0.20;;;;;;;22.97;41.19;99978.50;10502708;28;20076;-70
2023/07/26 12:59:44;;;;;;;0.50;0.20;;;;;;;23.08;39.72;99982.94;10500177;28;20245;-70
2023/07/26 13:04:48;;;;;;;3.05;1.08;;;;;;;23.49;39.83;99985.00;10504948;28;20036;-70
2023/07/26 13:09:49;;;;;;;0.20;0.10;;;;;;;24.00;38.86;99993.34;10500592;28;20058;-70
2023/07/26 13:14:51;;;;;;;0.50;0.30;;;;;;;23.92;38.44;99986.47;10503409;28;20112;-69
2023/07/26 13:19:55;;;;;;;1.20;0.30;;;;;;;24.30;37.73;100003.50;10499063;28;20047;-69
2023/07/26 13:24:57;;;;;;;0.20;0.20;;;;;;;24.28;36.56;100005.69;10498248;28;20392;-69
2023/07/26 13:30:00;;;;;;;0.65;0.20;;;;;;;24.80;35.36;100003.69;10507001;28;20051;-69
2023/07/26 13:35:02;;;;;;;0.30;0.20;;;;;;;25.06;35.80;99996.22;10509195;28;20345;-70
2023/07/26 13:40:04;;;;;;;3.03;0.20;;;;;;;25.31;34.99;99988.97;10505527;28;20126;-69
2023/07/26 13:45:08;;;;;;;0.35;0.10;;;;;;;25.62;33.97;99984.09;10503117;28;20089;-70
2023/07/26 13:50:09;;;;;;;0.40;0.20;;;;;;;25.12;33.38;99997.84;10508590;28;20071;-70
2023/07/26 13:55:11;;;;;;;2.05;0.20;;;;;;;25.33;32.77;99987.56;10507497;28;20099;-69
2023/07/26 14:00:12;;;;;;;0.95;0.20;;;;;;;25.69;32.57;99981.03;10506556;28;20056;-69
2023/07/26 14:05:14;;;;;;;1.55;0.30;;;;;;;26.21;32.49;99987.00;10505471;28;20067;-70
2023/07/26 14:10:16;;;;;;;2.55;0.28;;;;;;;25.36;32.79;100004.66;10512043;28;20131;-71
2023/07/26 14:15:17;;;;;;;1.35;0.73;;;;;;;24.91;33.74;100001.75;10511832;28;20048;-70
2023/07/26 14:20:19;;;;;;;0.40;0.20;;;;;;;24.43;34.39;100001.31;10506940;28;20048;-70
2023/07/26 14:25:20;;;;;;;1.35;0.30;;;;;;;23.73;35.61;100010.84;10509379;28;20120;-70
2023/07/26 14:30:22;;;;;;;0.63;0.30;;;;;;;23.22;35.86;100031.81;10504759;28;20070;-70
2023/07/26 14:35:23;;;;;;;1.10;0.20;;;;;;;23.01;37.11;100031.72;10503182;28;20067;-70
2023/07/26 14:40:25;;;;;;;1.00;0.20;;;;;;;22.66;38.15;100037.81;10504542;28;20076;-70
2023/07/26 14:45:26;;;;;;;0.30;0.20;;;;;;;22.37;39.78;100047.19;10509244;28;20053;-70
2023/07/26 14:50:28;;;;;;;1.00;0.32;;;;;;;21.75;43.09;100053.16;10505908;28;20302;-70
2023/07/26 14:55:29;;;;;;;0.50;0.25;;;;;;;21.73;43.50;100058.88;10504605;28;20276;-69
2023/07/26 15:00:31;;;;;;;1.45;0.20;;;;;;;22.80;41.71;100058.16;10509877;28;20052;-69
2023/07/26 15:05:32;;;;;;;0.50;0.20;;;;;;;22.90;40.56;100082.06;10504326;28;20116;-70
2023/07/26 15:10:34;;;;;;;0.70;0.28;;;;;;;21.74;42.26;100106.19;10505324;28;20109;-70
2023/07/26 15:15:38;;;;;;;0.50;0.13;;;;;;;20.76;43.54;100113.06;10509610;28;20052;-70
2023/07/26 15:20:40;;;;;;;0.20;0.10;;;;;;;20.48;44.60;100099.44;10505600;28;20382;-70
2023/07/26 15:25:41;;;;;;;0.30;0.10;;;;;;;20.15;44.65;100103.81;10503037;28;20067;-69
2023/07/26 15:30:43;;;;;;;0.10;0.10;;;;;;;19.86;45.41;100098.38;10500136;28;20070;-69
2023/07/26 15:35:44;;;;;;;0.20;0.10;;;;;;;19.77;45.53;100078.03;10506851;28;20345;-69
2023/07/26 15:40:47;;;;;;;1.70;0.52;;;;;;;19.93;44.71;100071.78;10499981;28;20053;-69
2023/07/26 15:45:50;;;;;;;0.52;0.10;;;;;;;20.03;44.86;100089.41;10501612;28;20551;-69
2023/07/26 15:50:55;;;;;;;0.10;0.10;;;;;;;20.03;44.74;100090.22;10502803;28;20136;-69
2023/07/26 15:55:57;;;;;;;0.00;0.00;;;;;;;20.18;44.27;100085.06;10505091;28;20372;-69
2023/07/26 16:00:58;;;;;;;0.32;0.10;;;;;;;20.47;43.64;100081.44;10503067;28;20071;-71
2023/07/26 16:06:00;;;;;;;0.22;0.10;;;;;;;20.75;43.48;100077.78;10502626;28;20304;-72
2023/07/26 16:11:04;;;;;;;1.75;0.70;;;;;;;21.13;43.38;100087.94;10506861;28;20123;-69
2023/07/26 16:16:06;;;;;;;0.10;0.10;;;;;;;21.31;43.40;100085.97;10501996;28;20028;-69
2023/07/26 16:21:10;;;;;;;1.38;0.17;;;;;;;21.28;43.38;100090.03;10508081;28;20111;-69
2023/07/26 16:26:18;;;;;;;0.20;0.10;;;;;;;21.54;43.25;100076.69;10501143;28;20101;-69
2023/07/26 16:31:20;;;;;;;0.40;0.10;;;;;;;21.96;43.09;100065.97;10506782;28;20052;-69
2023/07/26 16:36:21;;;;;;;1.02;0.20;;;;;;;22.83;42.39;100054.06;10499574;28;20635;-72
2023/07/26 16:41:23;;;;;;;0.88;0.30;;;;;;;24.02;41.67;100048.81;10498579;28;20068;-69
2023/07/26 16:46:24;;;;;;;1.92;0.20;;;;;;;25.01;40.90;100053.16;10504191;28;20096;-69
2023/07/26 16:51:37;;;;;;;0.32;0.20;;;;;;;25.23;40.33;100058.34;10501756;28;20047;-69
2023/07/26 16:56:39;;;;;;;0.30;0.13;;;;;;;25.12;38.57;100052.03;10500833;28;20376;-69
2023/07/26 17:01:41;;;;;;;0.80;0.30;;;;;;;25.12;37.45;100060.28;10501605;28;20056;-69
2023/07/26 17:06:43;;;;;;;0.60;0.28;;;;;;;25.48;36.94;100062.94;10498481;28;20056;-70
2023/07/26 17:11:45;;;;;;;1.23;0.30;;;;;;;25.09;36.59;100064.41;10500268;28;20116;-71
2023/07/26 17:16:46;;;;;;;1.25;0.30;;;;;;;25.03;37.28;100056.47;10498126;28;20072;-69
2023/07/26 17:21:47;;;;;;;2.28;0.38;;;;;;;24.88;37.26;100054.56;10511050;28;20074;-70
2023/07/26 17:26:49;;;;;;;1.20;0.50;;;;;;;24.76;37.55;100054.03;10499570;28;20119;-70
2023/07/26 17:31:50;;;;;;;0.60;0.40;;;;;;;24.76;38.15;100054.03;10499788;28;20064;-71
2023/07/26 17:36:53;;;;;;;3.53;0.40;;;;;;;24.16;39.43;100054.59;10499913;28;20276;-69
2023/07/26 17:41:55;;;;;;;1.25;0.40;;;;;;;23.74;39.93;100059.16;10500941;28;20051;-68
2023/07/26 17:46:56;;;;;;;2.42;0.43;;;;;;;23.26;40.49;100054.88;10499744;28;20112;-68
2023/07/26 17:51:59;;;;;;;0.60;0.40;;;;;;;23.00;41.14;100067.59;10500432;28;20036;-69
2023/07/26 17:57:00;;;;;;;1.17;0.38;;;;;;;22.60;41.89;100064.34;10503442;28;20075;-68
2023/07/26 18:02:02;;;;;;;0.90;0.40;;;;;;;22.15;42.86;100065.56;10499429;28;20103;-68
2023/07/26 18:07:03;;;;;;;1.95;0.40;;;;;;;22.24;43.21;100064.06;10499360;28;20032;-68
2023/07/26 18:12:07;;;;;;;1.00;0.32;;;;;;;22.43;43.30;100066.38;10499922;28;20064;-69
2023/07/26 18:17:08;;;;;;;1.88;0.50;;;;;;;22.45;43.17;100069.69;10508202;28;20056;-68
2023/07/26 18:22:10;;;;;;;0.88;0.38;;;;;;;22.42;44.07;100072.97;10514512;28;20055;-68
2023/07/26 18:27:12;;;;;;;1.10;0.50;;;;;;;22.15;45.07;100071.06;10506456;28;20080;-68
2023/07/26 18:32:15;;;;;;;3.83;0.80;;;;;;;21.97;45.67;100077.72;10507393;28;20052;-68
2023/07/26 18:37:16;;;;;;;1.13;0.60;;;;;;;21.88;46.31;100076.53;10508595;28;20131;-70
2023/07/26 18:42:17;;;;;;;1.25;0.40;;;;;;;21.86;46.66;100076.81;10502873;28;20056;-70
2023/07/26 18:47:19;;;;;;;0.60;0.43;;;;;;;21.60;47.35;100100.28;10504912;28;20107;-70
2023/07/26 18:52:20;;;;;;;0.90;0.45;;;;;;;21.28;48.48;100103.69;10509021;28;20200;-69
2023/07/26 18:57:22;;;;;;;3.08;0.68;;;;;;;21.09;48.47;100116.00;10509557;28;20048;-69
2023/07/26 19:02:23;;;;;;;1.80;0.82;;;;;;;20.90;49.25;100126.41;10503970;28;20108;-69
2023/07/26 19:07:24;;;;;;;0.50;0.38;;;;;;;20.76;49.78;100131.38;10504051;28;20059;-68
2023/07/26 19:12:26;;;;;;;2.05;1.05;;;;;;;20.53;50.42;100143.25;10507540;28;20040;-69
2023/07/26 19:17:28;;;;;;;0.60;0.40;;;;;;;20.41;51.17;100148.78;10503811;28;20051;-69
2023/07/26 19:22:29;;;;;;;1.45;0.65;;;;;;;20.28;51.11;100147.19;10505924;28;20075;-74
2023/07/26 19:27:31;;;;;;;1.73;0.50;;;;;;;20.08;51.98;100146.78;10505871;28;20060;-73
2023/07/26 19:32:32;;;;;;;1.20;0.50;;;;;;;19.98;52.31;100150.16;10505359;28;20052;-73
2023/07/26 19:37:33;;;;;;;2.28;0.50;;;;;;;19.94;52.24;100146.25;10503083;28;20047;-73
2023/07/26 19:42:35;;;;;;;2.13;0.57;;;;;;;19.87;52.83;100143.69;10501476;28;20248;-73
2023/07/26 19:47:36;;;;;;;1.70;0.55;;;;;;;19.85;52.65;100150.47;10507721;28;20367;-73
2023/07/26 19:52:38;;;;;;;1.13;0.65;;;;;;;19.69;53.42;100141.06;10502919;28;20040;-72
2023/07/26 19:57:39;;;;;;;4.10;0.50;;;;;;;19.64;53.47;100141.00;10503278;28;20395;-73
2023/07/26 20:02:41;;;;;;;1.95;0.65;;;;;;;19.59;54.07;100145.28;10502938;28;20349;-70
2023/07/26 20:07:42;;;;;;;2.03;0.70;;;;;;;19.45;54.11;100148.50;10500368;28;20052;-73
2023/07/26 20:12:44;;;;;;;1.98;0.70;;;;;;;19.32;54.37;100147.69;10501650;28;20052;-72
2023/07/26 20:17:45;;;;;;;2.53;0.80;;;;;;;19.21;54.70;100151.25;10500582;28;20115;-72
2023/07/26 20:22:46;;;;;;;2.95;0.80;;;;;;;19.12;55.11;100152.69;10504301;28;20048;-72
2023/07/26 20:27:48;;;;;;;1.95;0.80;;;;;;;19.08;55.41;100148.78;10501227;28;20063;-72
2023/07/26 20:32:50;;;;;;;1.55;0.63;;;;;;;19.08;55.64;100149.59;10498293;28;20111;-74
2023/07/26 20:37:51;;;;;;;1.48;0.80;;;;;;;19.15;55.71;100149.47;10506238;28;20078;-73
2023/07/26 20:42:52;;;;;;;3.47;1.10;;;;;;;19.18;55.76;100152.56;10499011;28;20104;-72
2023/07/26 20:47:54;;;;;;;2.70;0.90;;;;;;;19.19;56.07;100150.66;10500789;28;20068;-72
2023/07/26 20:52:55;;;;;;;1.05;0.73;;;;;;;19.09;56.84;100137.63;10501032;28;20044;-72
2023/07/26 20:57:57;;;;;;;1.83;0.73;;;;;;;19.04;57.28;100140.25;10503747;28;20036;-72
2023/07/26 21:02:58;;;;;;;1.73;0.70;;;;;;;18.98;57.55;100142.03;10502218;28;20315;-72
2023/07/26 21:08:00;;;;;;;4.70;0.90;;;;;;;19.01;57.54;100146.16;10501126;28;20036;-72
2023/07/26 21:13:01;;;;;;;3.17;0.70;;;;;;;18.94;58.07;100135.38;10505712;28;20395;-71
2023/07/26 21:18:03;;;;;;;1.45;0.98;;;;;;;18.97;57.83;100134.06;10500476;28;21510;-71
2023/07/26 21:23:04;;;;;;;1.88;0.85;;;;;;;19.05;57.85;100125.53;10500417;28;20052;-72
2023/07/26 21:28:05;;;;;;;1.50;0.82;;;;;;;19.04;57.66;100126.63;10500500;28;20040;-72
2023/07/26 21:33:07;;;;;;;4.38;1.55;;;;;;;19.05;57.62;100125.53;10504440;28;20076;-72
2023/07/26 21:38:08;;;;;;;1.63;0.82;;;;;;;19.03;57.80;100116.78;10499655;28;20345;-73
2023/07/26 21:43:10;;;;;;;1.17;0.80;;;;;;;19.00;57.71;100118.09;10499383;28;20079;-73
2023/07/26 21:48:12;;;;;;;2.55;0.73;;;;;;;18.97;57.79;100117.72;10503100;28;20116;-72
2023/07/26 21:53:13;;;;;;;1.27;0.70;;;;;;;18.91;58.04;100121.41;10507586;28;20115;-72
2023/07/26 21:58:15;;;;;;;1.45;0.80;;;;;;;18.84;58.49;100121.53;10507314;28;20060;-73
2023/07/26 22:03:17;;;;;;;2.42;2.13;;;;;;;18.76;58.87;100117.22;10508311;28;20067;-72
2023/07/26 22:08:19;;;;;;;2.03;1.20;;;;;;;18.63;59.40;100121.00;10511371;28;20111;-72
2023/07/26 22:13:21;;;;;;;5.68;1.60;;;;;;;18.53;59.78;100109.84;10504387;28;20108;-71
2023/07/26 22:18:22;;;;;;;2.35;1.08;;;;;;;18.44;59.99;100116.69;10507480;28;20100;-73
2023/07/26 22:23:24;;;;;;;3.58;1.98;;;;;;;18.38;60.03;100110.31;10507922;28;20064;-74
2023/07/26 22:28:25;;;;;;;2.53;1.13;;;;;;;18.31;60.11;100106.84;10508463;28;20107;-73
2023/07/26 22:33:27;;;;;;;5.80;0.90;;;;;;;18.22;60.37;100108.25;10507945;28;20044;-73
2023/07/26 22:38:28;;;;;;;2.33;0.93;;;;;;;18.14;60.34;100100.41;10508094;28;20334;-73
2023/07/26 22:43:30;;;;;;;2.65;1.00;;;;;;;18.06;60.33;100093.41;10509307;28;20437;-74
2023/07/26 22:48:31;;;;;;;4.10;1.20;;;;;;;17.97;60.51;100100.22;10504263;28;20059;-73
2023/07/26 22:53:32;;;;;;;2.72;1.10;;;;;;;17.98;60.01;100101.91;10504755;28;20051;-73
2023/07/26 22:58:34;;;;;;;3.90;1.33;;;;;;;17.90;60.23;100103.06;10509836;28;20115;-72
2023/07/26 23:03:35;;;;;;;1.67;0.90;;;;;;;17.89;60.20;100093.25;10504090;28;20122;-72
2023/07/26 23:08:37;;;;;;;2.20;0.90;;;;;;;17.90;60.13;100103.06;10503949;28;20270;-73
2023/07/26 23:13:38;;;;;;;1.85;1.30;;;;;;;17.92;60.42;100087.34;10503840;28;20242;-72